This is the latest recevied weather packets stored in our database for station/object KM6RDV. If no packets are shown the sender has not sent any weather packets the latest 10 day(s).
| Time | Temp. | Humidity | Pressure | Rain* | Wind** | Luminosity | Snow |
|---|---|---|---|---|---|---|---|
| 1778149219 | 12.78° C | 83% | 1022.1 hPa | 0 mm | - | 0 W/m² | - |
| 1778148620 | 12.78° C | 83% | 1021.9 hPa | 0 mm | - | 0 W/m² | - |
| 1778145017 | 13.33° C | 83% | 1022.2 hPa | 0 mm | - | 0 W/m² | - |
| 1778144416 | 13.33° C | 84% | 1022.3 hPa | 0 mm | - | 0 W/m² | - |
| 1778142626 | 13.33° C | 84% | 1022.5 hPa | 0 mm | - | 0 W/m² | - |
| 1778137218 | 13.33° C | 84% | 1022.6 hPa | 0 mm | - | 0 W/m² | - |
| 1778136018 | 13.33° C | 83% | 1022.6 hPa | 0 mm | - | 0 W/m² | - |
| 1778134816 | 13.33° C | 83% | 1022.5 hPa | 0 mm | - | 0 W/m² | - |
| 1778133619 | 13.33° C | 82% | 1022.4 hPa | 0 mm | - | 0 W/m² | - |
| 1778130017 | 13.89° C | 81% | 1022.4 hPa | 0 mm | - | 0 W/m² | - |
| 1778129440 | 13.89° C | 80% | 1022.4 hPa | 0 mm | - | 0 W/m² | - |
| 1778128224 | 14.44° C | 80% | 1022.3 hPa | 0 mm | - | 0 W/m² | - |
| 1778126419 | 14.44° C | 79% | 1022 hPa | 0 mm | - | 0 W/m² | - |
| 1778125820 | 14.44° C | 79% | 1021.8 hPa | 0 mm | - | 0 W/m² | - |
| 1778122219 | 15.56° C | 75% | 1021.3 hPa | 0 mm | - | 17 W/m² | - |
| 1778121620 | 16.11° C | 72% | 1021.3 hPa | 0 mm | - | 26 W/m² | - |
| 1778119816 | 17.22° C | 68% | 1021.3 hPa | 0 mm | - | 70 W/m² | - |
| 1778118618 | 17.78° C | 66% | 1021.3 hPa | 0 mm | - | 120 W/m² | - |
| 1778113217 | 19.44° C | 63% | 1021.1 hPa | 0 mm | - | 468 W/m² | - |
| 1778112620 | - | - | 1021.1 hPa | 0 mm | - | 504 W/m² | - |
| 1778108425 | 19.44° C | 63% | 1021.3 hPa | 0 mm | - | 743 W/m² | - |
| 1778107820 | 20° C | 62% | 1021.5 hPa | 0 mm | - | 772 W/m² | - |
| 1778106041 | 20.56° C | 59% | 1021.7 hPa | 0 mm | - | 857 W/m² | - |
| 1778105418 | 21.11° C | 59% | 1021.9 hPa | 0 mm | - | 881 W/m² | - |
| 1778094617 | 19.44° C | 63% | 1023.4 hPa | 0 mm | - | 991 W/m² | - |
* Rain latest hour (hover to see other rain measurements)
** Current wind speed in m/s (hover to see current wind gust speed)